Time;durP1;ratioP1;P1;durP2;ratioP2;P2;SDS_P1;SDS_P2;PMS_P1;PMS_P2;Temp;Humidity;BMP_temperature;BMP_pressure;BME280_temperature;BME280_humidity;BME280_pressure;Samples;Min_cycle;Max_cycle;Signal;HPM_P1;HPM_P2
2021/06/07 00:03:24;;;;;;;41.20;20.53;;;;;;;-139.38;100.00;63230.50;5070597;28;20243;-68
2021/06/07 00:06:50;;;;;;;35.77;19.97;;;;;;;-139.38;100.00;63230.50;5069239;28;20202;-68
2021/06/07 00:10:18;;;;;;;36.83;19.20;;;;;;;-139.38;100.00;63230.50;5072609;28;20211;-68
2021/06/07 00:13:44;;;;;;;35.70;20.03;;;;;;;-139.38;100.00;63230.50;5069473;28;20242;-68
2021/06/07 00:17:09;;;;;;;41.67;20.97;;;;;;;-139.38;100.00;63230.50;5069615;28;20240;-67
2021/06/07 00:20:37;;;;;;;35.67;19.87;;;;;;;-139.38;100.00;63230.50;5065760;28;20213;-68
2021/06/07 00:24:03;;;;;;;37.57;19.73;;;;;;;-139.38;100.00;63230.50;5067353;28;20221;-68
2021/06/07 00:27:30;;;;;;;38.80;20.23;;;;;;;-139.38;100.00;63230.50;5070316;28;20202;-67
2021/06/07 00:30:56;;;;;;;40.93;20.43;;;;;;;-139.38;100.00;63230.50;5069014;28;20655;-68
2021/06/07 00:34:21;;;;;;;38.80;20.83;;;;;;;-139.38;100.00;63230.50;5070224;28;20227;-68
2021/06/07 00:37:46;;;;;;;36.50;18.77;;;;;;;-139.38;100.00;63230.50;5071288;28;20225;-67
2021/06/07 00:41:12;;;;;;;35.80;19.83;;;;;;;-139.38;100.00;63230.50;5069321;28;20213;-68
2021/06/07 00:44:40;;;;;;;34.17;19.20;;;;;;;-139.38;100.00;63230.50;5068462;28;20308;-68
2021/06/07 00:48:07;;;;;;;33.23;19.57;;;;;;;-139.38;100.00;63230.50;5065497;28;20210;-68
2021/06/07 00:51:36;;;;;;;41.70;20.17;;;;;;;-139.38;100.00;63230.50;5068231;28;20206;-68
2021/06/07 00:55:01;;;;;;;34.80;20.10;;;;;;;-139.38;100.00;63230.50;5061120;28;20205;-68
2021/06/07 00:58:27;;;;;;;42.47;20.20;;;;;;;-139.38;100.00;63230.50;5068911;28;20611;-68
2021/06/07 01:01:55;;;;;;;38.30;19.17;;;;;;;-139.38;100.00;63230.50;5064226;28;20234;-68
2021/06/07 01:05:20;;;;;;;35.73;19.93;;;;;;;-139.38;100.00;63230.50;5062369;28;20212;-68
2021/06/07 01:08:46;;;;;;;36.17;19.03;;;;;;;-139.38;100.00;63230.50;5068413;28;20205;-68
2021/06/07 01:12:13;;;;;;;39.40;19.93;;;;;;;-139.38;100.00;63230.50;5062176;28;20206;-68
2021/06/07 01:15:38;;;;;;;35.23;19.23;;;;;;;-139.38;100.00;63230.50;5064829;28;20550;-67
2021/06/07 01:19:05;;;;;;;35.30;18.60;;;;;;;-139.38;100.00;63230.50;5065064;28;20208;-68
2021/06/07 01:22:32;;;;;;;36.23;20.10;;;;;;;-139.38;100.00;63230.50;5067661;28;20678;-67
2021/06/07 01:26:02;;;;;;;39.03;20.63;;;;;;;-139.38;100.00;63230.50;5067436;28;20217;-68
2021/06/07 01:29:28;;;;;;;36.97;20.30;;;;;;;-139.38;100.00;63230.50;5058825;28;20733;-68
2021/06/07 01:32:53;;;;;;;35.33;19.23;;;;;;;-139.38;100.00;63230.50;5066971;28;20230;-67
2021/06/07 01:36:19;;;;;;;38.03;19.73;;;;;;;-139.38;100.00;63230.50;5067850;28;20230;-69
2021/06/07 01:39:45;;;;;;;40.73;20.73;;;;;;;-139.38;100.00;63230.50;5069888;28;20243;-67
2021/06/07 01:43:11;;;;;;;37.43;19.93;;;;;;;-139.38;100.00;63230.50;5068434;28;20234;-67
2021/06/07 01:46:38;;;;;;;42.07;20.00;;;;;;;-139.38;100.00;63230.50;5069645;28;20201;-67
2021/06/07 01:50:05;;;;;;;38.83;19.30;;;;;;;-139.38;100.00;63230.50;5065717;28;20792;-68
2021/06/07 01:53:30;;;;;;;40.60;20.80;;;;;;;-139.38;100.00;63230.50;5068994;28;20601;-67
2021/06/07 01:56:58;;;;;;;40.20;20.83;;;;;;;-139.38;100.00;63230.50;5067265;28;20244;-67
2021/06/07 02:00:25;;;;;;;37.47;20.63;;;;;;;-139.38;100.00;63230.50;5071226;28;20206;-68
2021/06/07 02:03:51;;;;;;;41.37;19.67;;;;;;;-139.38;100.00;63230.50;5072893;28;20267;-67
2021/06/07 02:07:18;;;;;;;37.40;19.07;;;;;;;-139.38;100.00;63230.50;5072845;28;20208;-67
2021/06/07 02:10:44;;;;;;;43.53;20.63;;;;;;;-139.38;100.00;63230.50;5070666;28;20277;-66
2021/06/07 02:14:11;;;;;;;38.03;19.80;;;;;;;-139.38;100.00;63230.50;5065801;28;20228;-68
2021/06/07 02:17:38;;;;;;;42.67;19.83;;;;;;;-139.38;100.00;63230.50;5069933;28;20221;-67
2021/06/07 02:21:04;;;;;;;40.73;20.30;;;;;;;-139.38;100.00;63230.50;5071724;28;20210;-67
2021/06/07 02:24:29;;;;;;;39.97;20.57;;;;;;;-139.38;100.00;63230.50;5066121;28;20265;-67
2021/06/07 02:27:54;;;;;;;39.27;19.50;;;;;;;-139.38;100.00;63230.50;5067651;28;20251;-67
2021/06/07 02:31:23;;;;;;;44.30;20.43;;;;;;;-139.38;100.00;63230.50;5069542;28;20675;-66
2021/06/07 02:34:49;;;;;;;41.70;21.33;;;;;;;-139.38;100.00;63230.50;5071082;28;20702;-67
2021/06/07 02:38:14;;;;;;;43.30;20.77;;;;;;;-139.38;100.00;63230.50;5072715;28;20220;-67
2021/06/07 02:41:42;;;;;;;40.97;20.17;;;;;;;-139.38;100.00;63230.50;5066944;28;20212;-67
2021/06/07 02:45:09;;;;;;;45.80;21.53;;;;;;;-139.38;100.00;63230.50;5068999;28;20205;-67
2021/06/07 02:48:36;;;;;;;45.67;21.87;;;;;;;-139.38;100.00;63230.50;5069248;28;20199;-67
2021/06/07 02:52:03;;;;;;;51.67;22.07;;;;;;;-139.38;100.00;63230.50;5071668;28;20211;-68
2021/06/07 02:55:29;;;;;;;46.00;21.20;;;;;;;-139.38;100.00;63230.50;5066686;28;20253;-68
2021/06/07 02:58:55;;;;;;;44.80;22.20;;;;;;;-139.38;100.00;63230.50;5071976;28;20209;-67
2021/06/07 03:02:20;;;;;;;41.80;22.33;;;;;;;-139.38;100.00;63230.50;5067295;28;20578;-67
2021/06/07 03:05:47;;;;;;;41.27;20.50;;;;;;;-139.38;100.00;63230.50;5068060;28;20218;-68
2021/06/07 03:09:13;;;;;;;44.93;21.87;;;;;;;-139.38;100.00;63230.50;5069948;28;20717;-67
2021/06/07 03:12:39;;;;;;;49.40;22.23;;;;;;;-139.38;100.00;63230.50;5065792;28;20205;-67
2021/06/07 03:16:05;;;;;;;43.67;21.97;;;;;;;-139.38;100.00;63230.50;5071932;28;20205;-67
2021/06/07 03:19:30;;;;;;;45.07;22.33;;;;;;;-139.38;100.00;63230.50;5071711;28;20229;-67
2021/06/07 03:22:58;;;;;;;44.63;22.57;;;;;;;-139.38;100.00;63230.50;5071142;28;20226;-67
2021/06/07 03:26:24;;;;;;;49.10;22.90;;;;;;;-139.38;100.00;63230.50;5070235;28;20212;-67
2021/06/07 03:29:49;;;;;;;42.00;20.80;;;;;;;-139.38;100.00;63230.50;5069478;28;20202;-67
2021/06/07 03:33:15;;;;;;;44.67;20.43;;;;;;;-139.38;100.00;63230.50;5070590;28;20278;-67
2021/06/07 03:36:41;;;;;;;45.13;22.77;;;;;;;-139.38;100.00;63230.50;5067995;28;20662;-67
2021/06/07 03:40:09;;;;;;;48.37;21.90;;;;;;;-139.38;100.00;63230.50;5068126;28;20260;-67
2021/06/07 03:43:36;;;;;;;46.20;22.50;;;;;;;-139.38;100.00;63230.50;5065644;28;20308;-68
2021/06/07 03:47:02;;;;;;;42.53;22.03;;;;;;;-139.38;100.00;63230.50;5069281;28;20704;-68
2021/06/07 03:50:28;;;;;;;51.83;23.10;;;;;;;-139.38;100.00;63230.50;5062316;28;20209;-68
2021/06/07 03:53:53;;;;;;;40.83;20.87;;;;;;;-139.38;100.00;63230.50;5070825;28;20693;-68
2021/06/07 03:57:20;;;;;;;47.70;21.93;;;;;;;-139.38;100.00;63230.50;5076978;28;20226;-68
2021/06/07 04:00:45;;;;;;;46.57;22.07;;;;;;;-139.38;100.00;63230.50;5069908;28;20216;-68
2021/06/07 04:04:11;;;;;;;54.77;23.67;;;;;;;-139.38;100.00;63230.50;5069271;28;20771;-68
2021/06/07 04:07:36;;;;;;;51.67;22.53;;;;;;;-139.38;100.00;63230.50;5068545;28;20688;-68
2021/06/07 04:11:02;;;;;;;45.97;22.63;;;;;;;-139.38;100.00;63230.50;5064237;28;20202;-67
2021/06/07 04:14:29;;;;;;;46.50;23.13;;;;;;;-139.38;100.00;63230.50;5067302;28;20324;-68
2021/06/07 04:17:55;;;;;;;48.93;22.03;;;;;;;-139.38;100.00;63230.50;5066093;28;20240;-68
2021/06/07 04:21:21;;;;;;;45.87;22.93;;;;;;;-139.38;100.00;63230.50;5064397;28;20197;-68
2021/06/07 04:24:46;;;;;;;44.10;23.27;;;;;;;-139.38;100.00;63230.50;5069676;28;20298;-68
2021/06/07 04:28:12;;;;;;;48.63;22.50;;;;;;;-139.38;100.00;63230.50;5069495;28;20205;-68
2021/06/07 04:31:39;;;;;;;42.67;21.00;;;;;;;-139.38;100.00;63230.50;5070432;28;20289;-68
2021/06/07 04:35:05;;;;;;;43.63;21.60;;;;;;;-139.38;100.00;63230.50;5066607;28;20217;-67
2021/06/07 04:38:30;;;;;;;43.50;21.67;;;;;;;-139.38;100.00;63230.50;5064113;28;20712;-68
2021/06/07 04:41:55;;;;;;;43.70;21.67;;;;;;;-139.38;100.00;63230.50;5068274;28;20589;-67
2021/06/07 04:45:21;;;;;;;49.07;22.80;;;;;;;-139.38;100.00;63230.50;5070226;28;20224;-68
2021/06/07 04:48:48;;;;;;;44.07;21.00;;;;;;;-139.38;100.00;63230.50;5070017;28;20193;-67
2021/06/07 04:52:14;;;;;;;45.17;22.10;;;;;;;-139.38;100.00;63230.50;5068350;28;20201;-68
2021/06/07 04:55:40;;;;;;;40.23;20.27;;;;;;;-139.38;100.00;63230.50;5066134;28;20296;-68
2021/06/07 04:59:06;;;;;;;45.60;21.53;;;;;;;-139.38;100.00;63230.50;5069886;28;20246;-67
2021/06/07 05:02:31;;;;;;;37.00;18.60;;;;;;;-139.38;100.00;63230.50;5069396;28;20211;-68
2021/06/07 05:05:59;;;;;;;41.97;20.47;;;;;;;-139.38;100.00;63230.50;5067723;28;20217;-67
2021/06/07 05:09:25;;;;;;;37.30;19.93;;;;;;;-139.38;100.00;63230.50;5063816;28;20774;-68
2021/06/07 05:12:50;;;;;;;42.63;20.83;;;;;;;-139.38;100.00;63230.50;5057943;28;20645;-67
2021/06/07 05:16:16;;;;;;;39.53;19.00;;;;;;;-139.38;100.00;63230.50;5059365;28;20205;-68
2021/06/07 05:19:41;;;;;;;40.63;20.63;;;;;;;-139.38;100.00;63230.50;5070418;28;20220;-68
2021/06/07 05:23:08;;;;;;;47.70;21.07;;;;;;;-139.38;100.00;63230.50;5073125;28;20244;-67
2021/06/07 05:26:34;;;;;;;41.20;20.53;;;;;;;-139.38;100.00;63230.50;5073208;28;20209;-66
2021/06/07 05:30:00;;;;;;;45.60;21.73;;;;;;;-139.38;100.00;63230.50;5072697;28;20225;-76
2021/06/07 05:33:25;;;;;;;37.87;20.27;;;;;;;-139.38;100.00;63230.50;5069857;28;20230;-66
2021/06/07 05:36:51;;;;;;;41.63;20.87;;;;;;;-139.38;100.00;63230.50;5069033;28;20214;-67
2021/06/07 05:40:18;;;;;;;37.47;18.93;;;;;;;-139.38;100.00;63230.50;5073427;28;20210;-67
2021/06/07 05:43:44;;;;;;;42.77;20.00;;;;;;;-139.38;100.00;63230.50;5072204;28;20549;-68
2021/06/07 05:47:10;;;;;;;36.37;19.93;;;;;;;-139.38;100.00;63230.50;5073129;28;20301;-71
2021/06/07 05:50:35;;;;;;;41.00;20.90;;;;;;;-139.38;100.00;63230.50;5065890;28;20206;-70
2021/06/07 05:54:01;;;;;;;43.77;19.90;;;;;;;-139.38;100.00;63230.50;5069842;28;20217;-74
2021/06/07 05:57:28;;;;;;;39.70;19.53;;;;;;;-139.38;100.00;63230.50;5065771;28;20264;-68
2021/06/07 06:00:53;;;;;;;41.90;18.93;;;;;;;-139.38;100.00;63230.50;5068752;28;20517;-70
2021/06/07 06:04:19;;;;;;;41.60;19.80;;;;;;;-139.38;100.00;63230.50;5070696;28;20231;-67
2021/06/07 06:07:45;;;;;;;39.97;18.63;;;;;;;-139.38;100.00;63230.50;5067340;28;20206;-68
2021/06/07 06:11:11;;;;;;;37.60;18.80;;;;;;;-139.38;100.00;63230.50;5069238;28;20232;-69
2021/06/07 06:14:38;;;;;;;34.70;18.10;;;;;;;-139.38;100.00;63230.50;5071805;28;20312;-68
2021/06/07 06:18:03;;;;;;;32.00;17.00;;;;;;;-139.38;100.00;63230.50;5070803;28;20199;-75
2021/06/07 06:21:29;;;;;;;37.50;17.33;;;;;;;-139.38;100.00;63230.50;5076232;28;20198;-72
2021/06/07 06:24:55;;;;;;;33.43;16.50;;;;;;;-139.38;100.00;63230.50;5068103;28;20225;-68
2021/06/07 06:28:20;;;;;;;35.57;16.33;;;;;;;-139.38;100.00;63230.50;5065918;28;20251;-69
2021/06/07 06:31:47;;;;;;;36.03;16.87;;;;;;;-139.38;100.00;63230.50;5065951;28;20271;-70
2021/06/07 06:35:13;;;;;;;32.67;16.77;;;;;;;-139.38;100.00;63230.50;5071112;28;20293;-68
2021/06/07 06:38:38;;;;;;;32.53;17.43;;;;;;;-139.38;100.00;63230.50;5067575;28;20222;-68
2021/06/07 06:42:04;;;;;;;32.07;16.87;;;;;;;-139.38;100.00;63230.50;5070972;28;20242;-68
2021/06/07 06:45:29;;;;;;;32.27;17.13;;;;;;;-139.38;100.00;63230.50;5070906;28;20207;-69
2021/06/07 06:48:56;;;;;;;31.40;16.53;;;;;;;-139.38;100.00;63230.50;5058234;28;20666;-68
2021/06/07 06:52:22;;;;;;;31.37;16.47;;;;;;;-139.38;100.00;63230.50;5062758;28;20702;-69
2021/06/07 06:55:48;;;;;;;30.43;15.37;;;;;;;-139.38;100.00;63230.50;5072580;28;20201;-69
2021/06/07 06:59:13;;;;;;;31.93;15.80;;;;;;;-139.38;100.00;63230.50;5072248;28;20268;-69
2021/06/07 07:02:38;;;;;;;32.47;17.00;;;;;;;-139.38;100.00;63230.50;5072420;28;20206;-69
2021/06/07 07:06:06;;;;;;;30.37;15.63;;;;;;;-139.38;100.00;63230.50;5072972;28;20388;-68
2021/06/07 07:09:31;;;;;;;29.67;15.27;;;;;;;-139.38;100.00;63230.50;5065685;28;20203;-68
2021/06/07 07:12:56;;;;;;;29.27;15.57;;;;;;;-139.38;100.00;63230.50;5074189;28;20238;-69
2021/06/07 07:16:22;;;;;;;28.60;15.30;;;;;;;-139.38;100.00;63230.50;5071370;28;20259;-69
2021/06/07 07:19:48;;;;;;;30.03;14.97;;;;;;;-139.38;100.00;63230.50;5068867;28;20291;-69
2021/06/07 07:23:15;;;;;;;31.90;15.63;;;;;;;-139.38;100.00;63230.50;5072310;28;20239;-69
2021/06/07 07:26:40;;;;;;;31.03;15.40;;;;;;;-139.38;100.00;63230.50;5066505;28;20237;-69
2021/06/07 07:30:08;;;;;;;31.60;15.37;;;;;;;-139.38;100.00;63230.50;5069918;28;20607;-69
2021/06/07 07:33:37;;;;;;;25.00;13.83;;;;;;;-139.38;100.00;63230.50;5071729;28;20312;-69
2021/06/07 07:37:03;;;;;;;39.07;17.53;;;;;;;-139.38;100.00;63230.50;5064061;28;20241;-69
2021/06/07 07:40:30;;;;;;;27.10;14.50;;;;;;;-139.38;100.00;63230.50;5070269;28;20228;-69
2021/06/07 07:43:55;;;;;;;23.60;13.33;;;;;;;-139.38;100.00;63230.50;5070628;28;20225;-69
2021/06/07 07:47:21;;;;;;;22.63;12.47;;;;;;;-139.38;100.00;63230.50;5063359;28;20205;-69
2021/06/07 07:50:48;;;;;;;25.53;13.57;;;;;;;-139.38;100.00;63230.50;5062275;28;20207;-69
2021/06/07 07:54:13;;;;;;;24.87;13.10;;;;;;;-139.38;100.00;63230.50;5062363;28;20632;-69
2021/06/07 07:57:41;;;;;;;27.87;12.70;;;;;;;-139.38;100.00;63230.50;5069832;28;20750;-69
2021/06/07 08:01:07;;;;;;;23.27;12.90;;;;;;;-139.38;100.00;63230.50;5063819;28;20226;-69
2021/06/07 08:04:33;;;;;;;26.70;13.90;;;;;;;-139.38;100.00;63230.50;5060084;28;20291;-69
2021/06/07 08:07:58;;;;;;;22.70;12.53;;;;;;;-139.38;100.00;63230.50;5065074;28;20591;-69
2021/06/07 08:11:24;;;;;;;21.93;11.50;;;;;;;-139.38;100.00;63230.50;5067341;28;20213;-69
2021/06/07 08:14:50;;;;;;;15.57;9.13;;;;;;;-139.38;100.00;63230.50;5063695;28;20234;-69
2021/06/07 08:18:16;;;;;;;16.07;8.90;;;;;;;-139.38;100.00;63230.50;5062138;28;20271;-69
2021/06/07 08:21:41;;;;;;;13.67;7.70;;;;;;;-139.38;100.00;63230.50;5063279;28;20204;-69
2021/06/07 08:25:07;;;;;;;20.43;9.57;;;;;;;-139.38;100.00;63230.50;5065524;28;20219;-69
2021/06/07 08:28:32;;;;;;;10.73;7.33;;;;;;;-139.38;100.00;63230.50;5064660;28;20201;-69
2021/06/07 08:31:59;;;;;;;12.33;6.77;;;;;;;-139.38;100.00;63230.50;5068039;28;20299;-70
2021/06/07 08:35:24;;;;;;;12.33;6.80;;;;;;;-139.38;100.00;63230.50;5065145;28;20236;-69
2021/06/07 08:38:50;;;;;;;10.73;6.40;;;;;;;-139.38;100.00;63230.50;5066674;28;20203;-69
2021/06/07 08:42:15;;;;;;;8.73;6.30;;;;;;;-139.38;100.00;63230.50;5065715;28;20205;-69
2021/06/07 08:45:41;;;;;;;11.03;6.60;;;;;;;-139.38;100.00;63230.50;5066968;28;20205;-68
2021/06/07 08:49:08;;;;;;;10.33;6.20;;;;;;;-139.38;100.00;63230.50;5067970;28;20207;-69
2021/06/07 08:52:33;;;;;;;19.03;8.13;;;;;;;-139.38;100.00;63230.50;5064908;28;20220;-69
2021/06/07 08:55:58;;;;;;;12.30;7.43;;;;;;;-139.38;100.00;63230.50;5060595;28;20678;-69
2021/06/07 08:59:24;;;;;;;11.07;7.23;;;;;;;-139.38;100.00;63230.50;5069568;28;20204;-69
2021/06/07 09:02:50;;;;;;;12.87;7.70;;;;;;;-139.38;100.00;63230.50;5067572;28;20230;-70
2021/06/07 09:06:23;;;;;;;31.37;11.93;;;;;;;-139.38;100.00;63230.50;5068964;28;20528;-69
2021/06/07 09:10:04;;;;;;;21.13;10.87;;;;;;;-139.38;100.00;63230.50;5070672;28;20565;-69
2021/06/07 09:13:29;;;;;;;19.87;10.73;;;;;;;-139.38;100.00;63230.50;5066230;28;20239;-69
2021/06/07 09:16:55;;;;;;;16.60;9.87;;;;;;;-139.38;100.00;63230.50;5070149;28;20300;-69
2021/06/07 09:20:24;;;;;;;22.40;11.60;;;;;;;-139.38;100.00;63230.50;5071992;28;20244;-69
2021/06/07 09:23:51;;;;;;;21.17;10.80;;;;;;;-139.38;100.00;63230.50;5068585;28;20224;-69
2021/06/07 09:27:24;;;;;;;17.67;10.50;;;;;;;-139.38;100.00;63230.50;5069505;28;20204;-73
2021/06/07 09:30:50;;;;;;;29.63;13.70;;;;;;;-139.38;100.00;63230.50;5068406;28;20287;-69
2021/06/07 09:34:34;;;;;;;16.23;9.83;;;;;;;-139.38;100.00;63230.50;5069264;28;20579;-69
2021/06/07 09:38:07;;;;;;;30.37;13.80;;;;;;;-139.38;100.00;63230.50;5068525;28;20227;-69
2021/06/07 09:41:33;;;;;;;20.40;11.57;;;;;;;-139.38;100.00;63230.50;5068166;28;20316;-69
2021/06/07 09:44:59;;;;;;;17.27;10.23;;;;;;;-139.38;100.00;63230.50;5066799;28;20712;-69
2021/06/07 09:48:28;;;;;;;18.60;11.13;;;;;;;-139.38;100.00;63230.50;5068682;28;20205;-69
2021/06/07 09:51:54;;;;;;;17.03;10.53;;;;;;;-139.38;100.00;63230.50;5060802;28;20737;-69
2021/06/07 09:55:22;;;;;;;18.30;10.77;;;;;;;-139.38;100.00;63230.50;5065532;28;20201;-69
2021/06/07 09:58:49;;;;;;;19.13;10.87;;;;;;;-139.38;100.00;63230.50;5067329;28;20618;-70
2021/06/07 10:02:16;;;;;;;17.57;11.07;;;;;;;-139.38;100.00;63230.50;5064054;28;20255;-69
2021/06/07 10:05:49;;;;;;;18.27;11.37;;;;;;;-139.38;100.00;63230.50;5067711;28;20634;-70
2021/06/07 10:09:17;;;;;;;19.00;9.93;;;;;;;-139.38;100.00;63230.50;5071996;28;20208;-73
2021/06/07 10:12:45;;;;;;;17.33;10.70;;;;;;;-139.38;100.00;63230.50;5071453;28;20205;-72
2021/06/07 10:16:12;;;;;;;19.20;11.17;;;;;;;-139.38;100.00;63230.50;5067538;28;20207;-71
2021/06/07 10:19:45;;;;;;;17.30;10.57;;;;;;;-139.38;100.00;63230.50;5062988;28;20213;-71
2021/06/07 10:23:11;;;;;;;15.27;10.20;;;;;;;-139.38;100.00;63230.50;5071413;28;20646;-70
2021/06/07 10:26:36;;;;;;;13.97;9.73;;;;;;;-139.38;100.00;63230.50;5061661;28;20231;-77
2021/06/07 10:30:03;;;;;;;16.67;10.03;;;;;;;-139.38;100.00;63230.50;5066844;28;20626;-72
2021/06/07 10:33:29;;;;;;;17.90;10.67;;;;;;;-139.38;100.00;63230.50;5061827;28;20301;-71
2021/06/07 10:36:59;;;;;;;16.13;9.23;;;;;;;-139.38;100.00;63230.50;5067770;28;20202;-73
2021/06/07 10:40:26;;;;;;;14.47;9.47;;;;;;;-139.38;100.00;63230.50;5073537;28;20227;-71
2021/06/07 10:43:56;;;;;;;14.23;9.33;;;;;;;-139.38;100.00;63230.50;5069441;28;20713;-75
2021/06/07 10:47:25;;;;;;;14.70;9.20;;;;;;;-139.38;100.00;63230.50;5066429;28;20208;-72
2021/06/07 10:50:55;;;;;;;13.60;9.03;;;;;;;-139.38;100.00;63230.50;5068771;28;20204;-74
2021/06/07 10:54:31;;;;;;;13.90;9.83;;;;;;;-139.38;100.00;63230.50;5071282;28;20217;-71
2021/06/07 10:58:13;;;;;;;12.37;8.93;;;;;;;-139.38;100.00;63230.50;5069410;28;20209;-71
2021/06/07 11:01:48;;;;;;;14.33;9.83;;;;;;;-139.38;100.00;63230.50;5064265;28;20677;-71
2021/06/07 11:05:14;;;;;;;13.47;9.83;;;;;;;-139.38;100.00;63230.50;5070442;28;20287;-71
2021/06/07 11:08:42;;;;;;;13.30;9.03;;;;;;;-139.38;100.00;63230.50;5067038;28;20313;-72
2021/06/07 11:12:11;;;;;;;15.13;10.47;;;;;;;-139.38;100.00;63230.50;5073982;28;20798;-76
2021/06/07 11:15:52;;;;;;;14.73;8.87;;;;;;;-139.38;100.00;63230.50;5071174;28;20209;-73
2021/06/07 11:19:21;;;;;;;13.83;9.00;;;;;;;-139.38;100.00;63230.50;5065261;28;20205;-73
2021/06/07 11:23:03;;;;;;;12.20;9.00;;;;;;;-139.38;100.00;63230.50;5067423;28;20311;-75
2021/06/07 11:26:36;;;;;;;13.83;9.40;;;;;;;-139.38;100.00;63230.50;5069370;28;20197;-73
2021/06/07 11:30:06;;;;;;;12.27;9.33;;;;;;;-139.38;100.00;63230.50;5068735;28;20669;-73
2021/06/07 11:33:52;;;;;;;14.60;9.53;;;;;;;-139.38;100.00;63230.50;5071784;28;20233;-73
2021/06/07 11:37:37;;;;;;;13.67;9.70;;;;;;;-139.38;100.00;63230.50;5064910;28;20209;-73
2021/06/07 11:41:05;;;;;;;12.73;9.73;;;;;;;-139.38;100.00;63230.50;5071586;28;20228;-74
2021/06/07 11:44:51;;;;;;;13.83;8.83;;;;;;;-139.38;100.00;63230.50;5063346;28;20237;-72
2021/06/07 11:48:18;;;;;;;13.87;8.90;;;;;;;-139.38;100.00;63230.50;5069957;28;20292;-75
2021/06/07 11:51:45;;;;;;;13.10;8.87;;;;;;;-139.38;100.00;63230.50;5069466;28;20780;-75
2021/06/07 11:55:28;;;;;;;12.63;9.13;;;;;;;-139.38;100.00;63230.50;5064036;28;20213;-74
2021/06/07 11:59:06;;;;;;;12.83;8.57;;;;;;;-139.38;100.00;63230.50;5064528;28;20208;-75
2021/06/07 12:02:32;;;;;;;11.70;8.60;;;;;;;-139.38;100.00;63230.50;5070490;28;20708;-75
2021/06/07 12:06:07;;;;;;;12.67;9.27;;;;;;;-139.38;100.00;63230.50;5068880;28;20201;-76
2021/06/07 12:09:33;;;;;;;11.67;7.87;;;;;;;-139.38;100.00;63230.50;5069427;28;20258;-75
2021/06/07 12:13:18;;;;;;;11.83;8.53;;;;;;;-139.38;100.00;63230.50;5062875;28;20237;-75
2021/06/07 12:16:44;;;;;;;12.27;8.80;;;;;;;-139.38;100.00;63230.50;5065553;28;20207;-75
2021/06/07 12:20:10;;;;;;;15.03;8.67;;;;;;;-139.38;100.00;63230.50;5067688;28;20213;-76
2021/06/07 12:23:41;;;;;;;14.77;9.70;;;;;;;-139.38;100.00;63230.50;5062955;28;20660;-75
2021/06/07 12:31:12;;;;;;;11.63;8.90;;;;;;;-139.38;100.00;63230.50;5066434;28;20703;-75
2021/06/07 12:34:39;;;;;;;15.10;11.07;;;;;;;-139.38;100.00;63230.50;5064597;28;20616;-74
2021/06/07 12:38:06;;;;;;;13.00;10.03;;;;;;;-139.38;100.00;63230.50;5065934;28;20197;-75
2021/06/07 12:41:32;;;;;;;14.40;10.27;;;;;;;-139.38;100.00;63230.50;5068071;28;20217;-75
2021/06/07 12:45:02;;;;;;;14.60;10.40;;;;;;;-139.38;100.00;63230.50;5062416;28;20229;-74
2021/06/07 12:48:28;;;;;;;14.43;10.10;;;;;;;-139.38;100.00;63230.50;5066984;28;20205;-75
2021/06/07 12:52:01;;;;;;;15.20;9.87;;;;;;;-139.38;100.00;63230.50;5067547;28;20213;-75
2021/06/07 12:55:30;;;;;;;14.00;9.53;;;;;;;-139.38;100.00;63230.50;5065229;28;20258;-72
2021/06/07 12:58:57;;;;;;;13.30;9.87;;;;;;;-139.38;100.00;63230.50;5064259;28;20233;-73
2021/06/07 13:02:34;;;;;;;14.17;9.67;;;;;;;-139.38;100.00;63230.50;5066575;28;20251;-76
2021/06/07 13:06:04;;;;;;;15.47;10.43;;;;;;;-139.38;100.00;63230.50;5068130;28;20258;-75
2021/06/07 13:09:35;;;;;;;15.30;10.30;;;;;;;-139.38;100.00;63230.50;5068279;28;20700;-75
2021/06/07 13:13:01;;;;;;;13.23;9.50;;;;;;;-139.38;100.00;63230.50;5067744;28;20709;-75
2021/06/07 13:16:26;;;;;;;14.80;10.10;;;;;;;-139.38;100.00;63230.50;5065009;28;20254;-74
2021/06/07 13:19:55;;;;;;;16.83;10.33;;;;;;;-139.38;100.00;63230.50;5068378;28;20737;-74
2021/06/07 13:23:31;;;;;;;14.90;10.90;;;;;;;-139.38;100.00;63230.50;5063733;28;20225;-73
2021/06/07 13:27:18;;;;;;;13.40;9.63;;;;;;;-139.38;100.00;63230.50;5063986;28;20205;-75
2021/06/07 13:30:44;;;;;;;22.17;10.17;;;;;;;-139.38;100.00;63230.50;5067906;28;20201;-73
2021/06/07 13:34:28;;;;;;;13.27;10.17;;;;;;;-139.38;100.00;63230.50;5064719;28;20238;-74
2021/06/07 13:38:04;;;;;;;14.33;10.03;;;;;;;-139.38;100.00;63230.50;5060596;28;20341;-74
2021/06/07 13:41:31;;;;;;;16.33;10.23;;;;;;;-139.38;100.00;63230.50;5066034;28;20266;-74
2021/06/07 13:44:57;;;;;;;18.20;10.97;;;;;;;-139.38;100.00;63230.50;5076811;28;20228;-79
2021/06/07 13:48:25;;;;;;;16.17;11.47;;;;;;;-139.38;100.00;63230.50;5064291;28;20212;-75
2021/06/07 13:51:52;;;;;;;16.77;11.50;;;;;;;-139.38;100.00;63230.50;5065205;28;20556;-74
2021/06/07 13:55:18;;;;;;;15.77;11.33;;;;;;;-139.38;100.00;63230.50;5059709;28;20233;-74
2021/06/07 13:58:59;;;;;;;16.07;11.27;;;;;;;-139.38;100.00;63230.50;5065008;28;20215;-74
2021/06/07 14:02:25;;;;;;;15.23;10.80;;;;;;;-139.38;100.00;63230.50;5064523;28;20305;-75
2021/06/07 14:05:52;;;;;;;15.07;10.57;;;;;;;-139.38;100.00;63230.50;5065617;28;20202;-74
2021/06/07 14:09:18;;;;;;;14.93;10.63;;;;;;;-139.38;100.00;63230.50;5067969;28;20239;-75
2021/06/07 14:12:43;;;;;;;17.47;11.27;;;;;;;-139.38;100.00;63230.50;5066248;28;20202;-74
2021/06/07 14:16:10;;;;;;;16.03;11.37;;;;;;;-139.38;100.00;63230.50;5062254;28;20215;-73
2021/06/07 14:19:36;;;;;;;15.37;11.30;;;;;;;-139.38;100.00;63230.50;5067858;28;20212;-74
2021/06/07 14:26:46;;;;;;;18.17;11.60;;;;;;;-139.38;100.00;63230.50;5065886;28;20256;-74
2021/06/07 14:30:13;;;;;;;17.90;11.93;;;;;;;-139.38;100.00;63230.50;5065586;28;20685;-74
2021/06/07 14:33:39;;;;;;;18.23;12.50;;;;;;;-139.38;100.00;63230.50;5071985;28;20233;-74
2021/06/07 14:37:06;;;;;;;20.07;13.13;;;;;;;-139.38;100.00;63230.50;5067800;28;20201;-75
2021/06/07 14:40:34;;;;;;;19.07;12.93;;;;;;;-139.38;100.00;63230.50;5067856;28;20294;-75
2021/06/07 14:44:00;;;;;;;20.97;12.67;;;;;;;-139.38;100.00;63230.50;5069231;28;20236;-77
2021/06/07 14:47:28;;;;;;;22.00;14.80;;;;;;;-139.38;100.00;63230.50;5069360;28;20210;-73
2021/06/07 14:50:53;;;;;;;23.53;14.50;;;;;;;-139.38;100.00;63230.50;5069687;28;20203;-72
2021/06/07 14:54:21;;;;;;;20.97;14.03;;;;;;;-139.38;100.00;63230.50;5075065;28;20229;-80
2021/06/07 14:57:47;;;;;;;21.83;13.17;;;;;;;-139.38;100.00;63230.50;5068010;28;20228;-75
2021/06/07 15:01:14;;;;;;;26.33;14.70;;;;;;;-139.38;100.00;63230.50;5077375;28;20221;-74
2021/06/07 15:04:41;;;;;;;21.20;14.07;;;;;;;-139.38;100.00;63230.50;5068554;28;20675;-75
2021/06/07 15:08:07;;;;;;;21.80;14.07;;;;;;;-139.38;100.00;63230.50;5069283;28;20227;-75
2021/06/07 15:11:33;;;;;;;24.60;15.27;;;;;;;-139.38;100.00;63230.50;5065047;28;20288;-76
2021/06/07 15:14:58;;;;;;;22.37;13.67;;;;;;;-139.38;100.00;63230.50;5067975;28;20312;-74
2021/06/07 15:18:23;;;;;;;22.43;13.90;;;;;;;-139.38;100.00;63230.50;5068807;28;20201;-75
2021/06/07 15:21:51;;;;;;;21.77;13.47;;;;;;;-139.38;100.00;63230.50;5059454;28;20271;-76
2021/06/07 15:25:16;;;;;;;22.47;15.17;;;;;;;-139.38;100.00;63230.50;5070547;28;20201;-76
2021/06/07 15:28:42;;;;;;;19.97;13.70;;;;;;;-139.38;100.00;63230.50;5072698;28;20225;-77
2021/06/07 15:32:07;;;;;;;24.27;14.57;;;;;;;-139.38;100.00;63230.50;5074622;28;20250;-77